Time;durP1;ratioP1;P1;durP2;ratioP2;P2;SDS_P1;SDS_P2;PMS_P1;PMS_P2;Temp;Humidity;BMP_temperature;BMP_pressure;BME280_temperature;BME280_humidity;BME280_pressure;Samples;Min_cycle;Max_cycle;Signal;HPM_P1;HPM_P2
2022/06/07 00:02:11;;;;;;;18.85;13.05;;;13.50;99.90;;;;;;5017002;28;20029;-81
2022/06/07 00:04:38;;;;;;;17.58;12.55;;;13.60;99.90;;;;;;5034712;28;20038;-82
2022/06/07 00:07:04;;;;;;;17.55;13.02;;;13.60;99.90;;;;;;5017405;28;20021;-83
2022/06/07 00:09:30;;;;;;;23.65;14.73;;;13.60;99.90;;;;;;5017309;28;20021;-79
2022/06/07 00:11:57;;;;;;;20.13;15.80;;;13.60;99.90;;;;;;5012816;28;20029;-82
2022/06/07 00:14:24;;;;;;;23.15;15.68;;;13.60;99.90;;;;;;5013532;28;20394;-81
2022/06/07 00:16:50;;;;;;;22.60;15.77;;;13.70;99.90;;;;;;5014305;28;20022;-82
2022/06/07 00:19:16;;;;;;;24.38;16.83;;;13.60;99.90;;;;;;5034121;28;20053;-83
2022/06/07 00:21:42;;;;;;;24.80;18.05;;;13.60;99.90;;;;;;5033223;28;20056;-81
2022/06/07 00:24:08;;;;;;;22.35;16.15;;;13.60;99.90;;;;;;5034258;28;20022;-81
2022/06/07 00:26:37;;;;;;;26.75;19.15;;;13.70;99.90;;;;;;5033475;28;20033;-81
2022/06/07 00:29:04;;;;;;;27.50;19.88;;;13.70;99.90;;;;;;5034191;28;20039;-81
2022/06/07 00:31:31;;;;;;;25.90;18.75;;;13.60;99.90;;;;;;5034341;28;20149;-81
2022/06/07 00:33:56;;;;;;;28.00;21.08;;;13.60;99.90;;;;;;5032976;28;20045;-82
2022/06/07 00:36:22;;;;;;;27.58;20.10;;;13.60;99.90;;;;;;5033676;28;20034;-82
2022/06/07 00:38:48;;;;;;;22.30;17.70;;;13.60;99.90;;;;;;5034184;28;20034;-80
2022/06/07 00:41:14;;;;;;;28.80;19.80;;;13.70;99.90;;;;;;5034271;28;20370;-81
2022/06/07 00:44:01;;;;;;;28.70;20.15;;;13.70;99.90;;;;;;5034569;28;20040;-81
2022/06/07 00:46:27;;;;;;;31.35;22.38;;;13.70;99.90;;;;;;5033962;28;20378;-84
2022/06/07 00:48:53;;;;;;;34.80;23.98;;;13.60;99.90;;;;;;5032864;28;20041;-82
2022/06/07 00:51:19;;;;;;;35.22;24.00;;;13.70;99.90;;;;;;5033792;28;20033;-81
2022/06/07 00:53:44;;;;;;;31.85;21.05;;;13.70;99.90;;;;;;5032699;28;20041;-81
2022/06/07 00:56:10;;;;;;;31.63;21.35;;;13.70;99.90;;;;;;5016206;28;20103;-81
2022/06/07 00:58:36;;;;;;;29.33;21.83;;;13.70;99.90;;;;;;5032755;28;20473;-84
2022/06/07 01:01:01;;;;;;;31.90;22.73;;;13.60;99.90;;;;;;5016367;28;20114;-82
2022/06/07 01:03:27;;;;;;;35.03;24.40;;;13.70;99.90;;;;;;5033808;28;20033;-80
2022/06/07 01:05:54;;;;;;;39.67;25.13;;;13.70;99.90;;;;;;5015920;28;20041;-81
2022/06/07 01:11:04;;;;;;;;;;;13.70;99.90;;;;;;5034338;28;20106;-83
2022/06/07 01:13:32;;;;;;;36.05;24.80;;;13.70;99.90;;;;;;5015916;28;20404;-82
2022/06/07 01:16:00;;;;;;;33.45;23.90;;;13.70;99.90;;;;;;5033612;28;20029;-82
2022/06/07 01:18:26;;;;;;;39.28;25.70;;;13.80;99.90;;;;;;5033629;28;20393;-82
2022/06/07 01:21:17;;;;;;;37.15;25.05;;;13.70;99.90;;;;;;5032383;28;20037;-81
2022/06/07 01:23:44;;;;;;;33.03;22.48;;;13.80;99.90;;;;;;5033411;28;20028;-79
2022/06/07 01:26:11;;;;;;;38.67;24.63;;;13.80;99.90;;;;;;5033393;28;20543;-81
2022/06/07 01:28:38;;;;;;;33.33;22.88;;;13.80;99.90;;;;;;5015663;28;20489;-79
2022/06/07 01:31:04;;;;;;;35.40;22.67;;;13.80;99.90;;;;;;5033455;28;20050;-80
2022/06/07 01:33:30;;;;;;;36.20;24.63;;;13.80;99.90;;;;;;5015572;28;20075;-85
2022/06/07 01:36:12;;;;;;;37.88;24.77;;;13.80;99.90;;;;;;5015689;28;20029;-82
2022/06/07 01:38:40;;;;;;;35.58;25.10;;;13.80;99.90;;;;;;5033093;28;20104;-82
2022/06/07 01:43:52;;;;;;;32.15;21.98;;;13.80;99.90;;;;;;5033629;28;20397;-82
2022/06/07 01:46:18;;;;;;;31.85;22.08;;;13.90;99.90;;;;;;5033175;28;20080;-82
2022/06/07 01:48:46;;;;;;;43.58;24.67;;;13.90;99.90;;;;;;5033272;28;20482;-82
2022/06/07 01:51:12;;;;;;;38.67;25.65;;;13.90;99.90;;;;;;5033870;28;20453;-81
2022/06/07 01:53:39;;;;;;;41.95;28.50;;;13.90;99.90;;;;;;5033135;28;20068;-82
2022/06/07 01:56:11;;;;;;;39.90;25.95;;;13.90;99.90;;;;;;5033173;28;20096;-81
2022/06/07 01:58:38;;;;;;;44.83;28.92;;;14.00;99.90;;;;;;5033294;28;20056;-79
2022/06/07 02:01:04;;;;;;;41.65;26.90;;;14.00;99.90;;;;;;5015435;28;20113;-81
2022/06/07 02:03:30;;;;;;;40.83;27.15;;;14.00;99.90;;;;;;5037305;28;20029;-82
2022/06/07 02:06:14;;;;;;;40.15;27.73;;;13.90;99.90;;;;;;5036066;28;20079;-82
2022/06/07 02:08:41;;;;;;;;;;;14.00;99.90;;;;;;5037761;28;20424;-80
2022/06/07 02:11:15;;;;;;;39.95;25.88;;;13.90;99.90;;;;;;5019208;28;19963;-81
2022/06/07 02:13:41;;;;;;;37.50;28.10;;;14.00;99.90;;;;;;5019216;28;20354;-81
2022/06/07 02:16:08;;;;;;;41.38;28.83;;;14.00;99.90;;;;;;5037193;28;20045;-82
2022/06/07 02:18:34;;;;;;;40.10;28.20;;;14.00;99.90;;;;;;5037494;28;20033;-81
2022/06/07 02:21:00;;;;;;;39.42;28.15;;;14.00;99.90;;;;;;5036994;28;20029;-80
2022/06/07 02:23:30;;;;;;;42.15;27.98;;;14.00;99.90;;;;;;5037388;28;20112;-81
2022/06/07 02:26:00;;;;;;;37.83;26.25;;;14.00;99.90;;;;;;5019525;28;20470;-80
2022/06/07 02:28:32;;;;;;;38.65;25.55;;;14.00;99.90;;;;;;5019954;28;20424;-82
2022/06/07 02:30:59;;;;;;;38.63;27.50;;;14.00;99.90;;;;;;5019729;28;20079;-81
2022/06/07 02:33:26;;;;;;;35.83;23.95;;;14.00;99.90;;;;;;5036031;28;20496;-81
2022/06/07 02:35:53;;;;;;;41.70;28.15;;;14.00;99.90;;;;;;5018837;28;20033;-74
2022/06/07 02:38:19;;;;;;;38.10;27.00;;;14.00;99.90;;;;;;5036728;28;20037;-74
2022/06/07 02:40:48;;;;;;;45.80;28.58;;;14.00;99.90;;;;;;5018714;28;20033;-75
2022/06/07 02:43:14;;;;;;;43.20;27.95;;;14.00;99.90;;;;;;5036586;28;20112;-75
2022/06/07 02:45:39;;;;;;;43.05;29.02;;;14.00;99.90;;;;;;5015538;28;20029;-74
2022/06/07 02:48:07;;;;;;;44.38;28.27;;;14.00;99.90;;;;;;5036384;28;20087;-74
2022/06/07 02:50:33;;;;;;;42.72;28.60;;;14.00;99.90;;;;;;5035943;28;20049;-74
2022/06/07 02:52:59;;;;;;;36.28;27.38;;;14.00;99.90;;;;;;5036320;28;20084;-74
2022/06/07 02:55:25;;;;;;;37.78;27.30;;;13.90;99.90;;;;;;5036021;28;20108;-75
2022/06/07 02:57:50;;;;;;;44.42;28.02;;;13.90;99.90;;;;;;5018332;28;20067;-75
2022/06/07 03:00:16;;;;;;;46.42;28.67;;;14.00;99.90;;;;;;5018219;28;20065;-74
2022/06/07 03:02:43;;;;;;;39.70;27.35;;;14.00;99.90;;;;;;5036139;28;20044;-75
2022/06/07 03:05:12;;;;;;;40.67;27.10;;;13.90;99.90;;;;;;5018397;28;20152;-74
2022/06/07 03:07:39;;;;;;;36.75;28.45;;;13.90;99.90;;;;;;5034753;28;20042;-74
2022/06/07 03:10:07;;;;;;;39.78;30.27;;;13.90;99.90;;;;;;5035542;28;20037;-75
2022/06/07 03:12:32;;;;;;;41.95;29.83;;;13.90;99.90;;;;;;5035195;28;20164;-72
2022/06/07 03:14:59;;;;;;;39.70;27.40;;;13.80;99.90;;;;;;5034653;28;20025;-75
2022/06/07 03:17:25;;;;;;;41.03;27.85;;;13.80;99.90;;;;;;5034523;28;20049;-75
2022/06/07 03:19:51;;;;;;;35.42;25.17;;;13.90;99.90;;;;;;5035637;28;20405;-75
2022/06/07 03:22:18;;;;;;;38.80;28.65;;;13.90;99.90;;;;;;5012656;28;20034;-75
2022/06/07 03:24:44;;;;;;;39.85;27.73;;;13.90;99.90;;;;;;5034466;28;20040;-76
2022/06/07 03:27:11;;;;;;;41.72;27.23;;;13.80;99.90;;;;;;5017758;28;20029;-76
2022/06/07 03:29:37;;;;;;;38.67;27.92;;;13.90;99.90;;;;;;5035233;28;20030;-74
2022/06/07 03:32:04;;;;;;;40.08;30.15;;;13.90;99.90;;;;;;5035523;28;20052;-74
2022/06/07 03:34:29;;;;;;;34.17;26.55;;;13.90;99.90;;;;;;5035452;28;20140;-75
2022/06/07 03:36:55;;;;;;;43.50;29.13;;;13.90;99.90;;;;;;5018163;28;20481;-75
2022/06/07 03:39:21;;;;;;;38.00;26.92;;;13.80;99.90;;;;;;5017912;28;20026;-75
2022/06/07 03:41:46;;;;;;;33.10;24.63;;;13.80;99.90;;;;;;5017672;28;20040;-73
2022/06/07 03:44:12;;;;;;;38.15;25.73;;;13.90;99.90;;;;;;5035213;28;20071;-73
2022/06/07 03:46:42;;;;;;;39.47;26.75;;;13.80;99.90;;;;;;5017950;28;20064;-74
2022/06/07 03:49:08;;;;;;;36.50;26.83;;;13.70;99.90;;;;;;5035582;28;20029;-74
2022/06/07 03:51:34;;;;;;;36.03;26.88;;;13.80;99.90;;;;;;5035222;28;20060;-74
2022/06/07 03:54:00;;;;;;;37.92;26.23;;;13.80;99.90;;;;;;5035322;28;20160;-74
2022/06/07 03:56:26;;;;;;;34.13;25.50;;;13.80;99.90;;;;;;5035378;28;20037;-74
2022/06/07 03:58:52;;;;;;;36.83;25.90;;;13.80;99.90;;;;;;5017560;28;20053;-75
2022/06/07 04:01:20;;;;;;;34.67;27.33;;;13.70;99.90;;;;;;5017546;28;20065;-74
2022/06/07 04:03:48;;;;;;;34.83;24.58;;;13.80;99.90;;;;;;5017437;28;20406;-73
2022/06/07 04:06:32;;;;;;;33.83;23.17;;;13.80;99.90;;;;;;5017184;28;20053;-75
2022/06/07 04:08:58;;;;;;;32.83;24.42;;;13.80;99.90;;;;;;5017309;28;20022;-74
2022/06/07 04:11:26;;;;;;;34.33;24.20;;;13.80;99.90;;;;;;5034877;28;20027;-73
2022/06/07 04:13:55;;;;;;;35.25;23.95;;;13.80;99.90;;;;;;5035057;28;20095;-74
2022/06/07 04:16:23;;;;;;;41.22;27.13;;;13.90;99.90;;;;;;5034709;28;20033;-74
2022/06/07 04:18:49;;;;;;;31.85;24.40;;;13.80;99.90;;;;;;5033966;28;20030;-74
2022/06/07 04:21:16;;;;;;;33.05;24.50;;;13.90;99.90;;;;;;5016925;28;20094;-75
2022/06/07 04:23:42;;;;;;;39.97;26.15;;;13.90;99.90;;;;;;5000275;28;20037;-74
2022/06/07 04:26:14;;;;;;;32.58;25.20;;;14.00;99.90;;;;;;5016037;28;20091;-74
2022/06/07 04:28:40;;;;;;;33.90;25.67;;;14.00;99.90;;;;;;5034532;28;20048;-73
2022/06/07 04:31:14;;;;;;;38.50;25.13;;;14.00;99.90;;;;;;5016959;28;20116;-74
2022/06/07 04:33:41;;;;;;;27.73;22.20;;;14.00;99.90;;;;;;5016905;28;20492;-73
2022/06/07 04:36:18;;;;;;;34.60;23.83;;;14.00;99.90;;;;;;5016703;28;20025;-75
2022/06/07 04:38:45;;;;;;;37.65;24.42;;;14.00;99.90;;;;;;5034106;28;20485;-73
2022/06/07 04:41:13;;;;;;;29.45;21.13;;;14.00;99.90;;;;;;5034260;28;20509;-73
2022/06/07 04:43:39;;;;;;;29.88;22.10;;;14.00;99.90;;;;;;5033944;28;20045;-75
2022/06/07 04:46:10;;;;;;;30.60;23.58;;;14.10;99.90;;;;;;5033797;28;20026;-73
2022/06/07 04:48:38;;;;;;;32.58;24.67;;;14.10;99.90;;;;;;5034291;28;20366;-74
2022/06/07 04:51:07;;;;;;;32.45;24.40;;;14.20;99.90;;;;;;5034049;28;20530;-74
2022/06/07 04:53:33;;;;;;;37.92;25.83;;;14.20;99.90;;;;;;5016803;28;20108;-74
2022/06/07 04:56:00;;;;;;;38.25;28.73;;;14.20;99.90;;;;;;5034169;28;20568;-73
2022/06/07 04:58:26;;;;;;;30.58;25.25;;;14.20;99.90;;;;;;5034114;28;20080;-73
2022/06/07 05:00:52;;;;;;;31.88;21.98;;;14.20;99.90;;;;;;5033560;28;20120;-75
2022/06/07 05:03:17;;;;;;;35.10;25.92;;;14.20;99.90;;;;;;5016318;28;20034;-74
2022/06/07 05:05:43;;;;;;;32.40;23.83;;;14.20;99.90;;;;;;5033861;28;20110;-75
2022/06/07 05:08:09;;;;;;;35.35;25.00;;;14.20;99.90;;;;;;5034246;28;20043;-74
2022/06/07 05:10:34;;;;;;;30.17;24.52;;;14.20;99.90;;;;;;5014888;28;20041;-74
2022/06/07 05:13:00;;;;;;;32.75;24.88;;;14.20;99.90;;;;;;5016042;28;20039;-74
2022/06/07 05:15:27;;;;;;;34.88;26.60;;;14.20;99.90;;;;;;5024948;28;20351;-73
2022/06/07 05:17:53;;;;;;;33.10;24.50;;;14.20;99.90;;;;;;5030744;28;20108;-74
2022/06/07 05:20:18;;;;;;;32.63;23.55;;;14.30;99.90;;;;;;5029798;28;20061;-74
2022/06/07 05:22:44;;;;;;;30.48;24.33;;;14.20;99.90;;;;;;4995870;28;20042;-73
2022/06/07 05:25:10;;;;;;;36.47;28.17;;;14.20;99.90;;;;;;5013116;28;20033;-74
2022/06/07 05:27:44;;;;;;;38.13;28.67;;;14.40;99.90;;;;;;4996233;28;20455;-73
2022/06/07 05:30:11;;;;;;;;;;;14.30;99.90;;;;;;5043362;28;20032;-73
2022/06/07 05:32:37;;;;;;;31.80;24.58;;;14.30;99.90;;;;;;5052724;28;19913;-72
2022/06/07 05:35:05;;;;;;;32.17;24.25;;;14.30;99.90;;;;;;5021614;28;20076;-73
2022/06/07 05:37:31;;;;;;;35.58;27.15;;;14.30;99.90;;;;;;5001553;28;20022;-73
2022/06/07 05:39:57;;;;;;;30.08;24.75;;;14.30;99.90;;;;;;5027062;28;20046;-74
2022/06/07 05:42:23;;;;;;;29.33;22.50;;;14.30;99.90;;;;;;5025129;28;20359;-75
2022/06/07 05:44:48;;;;;;;29.98;23.65;;;14.40;99.90;;;;;;5020607;28;20041;-74
2022/06/07 05:47:15;;;;;;;31.20;23.60;;;14.40;99.90;;;;;;5022824;28;20103;-74
2022/06/07 05:49:40;;;;;;;32.75;24.88;;;14.40;99.90;;;;;;5018045;28;20029;-74
2022/06/07 05:52:07;;;;;;;29.67;22.85;;;14.50;99.90;;;;;;5032343;28;20504;-73
2022/06/07 05:54:38;;;;;;;32.03;23.77;;;14.40;99.90;;;;;;5033264;28;20033;-74
2022/06/07 05:57:04;;;;;;;30.77;22.42;;;14.40;99.90;;;;;;5038326;28;20029;-77
2022/06/07 05:59:30;;;;;;;27.38;22.08;;;14.50;99.90;;;;;;5001545;28;20124;-77
2022/06/07 06:01:56;;;;;;;26.88;21.25;;;14.50;99.90;;;;;;5013994;28;20391;-78
2022/06/07 06:04:21;;;;;;;29.65;22.58;;;14.50;99.90;;;;;;5010500;28;20029;-77
2022/06/07 06:06:49;;;;;;;25.15;19.55;;;14.50;99.90;;;;;;4998804;28;20028;-80
2022/06/07 06:11:59;;;;;;;27.23;20.98;;;14.50;99.90;;;;;;5018055;28;20536;-78
2022/06/07 06:14:25;;;;;;;24.38;19.23;;;14.60;99.90;;;;;;5014955;28;20030;-78
2022/06/07 06:16:52;;;;;;;30.63;20.98;;;14.60;99.90;;;;;;4998509;28;20037;-82
2022/06/07 06:19:21;;;;;;;29.92;21.65;;;14.60;99.90;;;;;;5015208;28;20057;-81
2022/06/07 06:21:47;;;;;;;28.13;19.80;;;14.70;99.90;;;;;;5014758;28;20084;-80
2022/06/07 06:24:13;;;;;;;22.17;17.55;;;14.70;99.90;;;;;;4998826;28;20424;-80
2022/06/07 06:26:40;;;;;;;26.95;20.88;;;14.70;99.90;;;;;;5014826;28;20025;-80
2022/06/07 06:29:08;;;;;;;32.50;21.17;;;14.80;99.90;;;;;;5015078;28;20036;-80
2022/06/07 06:31:34;;;;;;;25.88;18.40;;;14.80;99.90;;;;;;5015267;28;20053;-79
2022/06/07 06:34:01;;;;;;;26.35;18.25;;;14.80;99.90;;;;;;5009861;28;20053;-81
2022/06/07 06:36:27;;;;;;;24.08;18.92;;;14.90;99.90;;;;;;5014662;28;20477;-80
2022/06/07 06:38:54;;;;;;;25.95;19.33;;;15.00;99.90;;;;;;5031560;28;20033;-79
2022/06/07 06:41:22;;;;;;;23.02;17.13;;;15.00;99.90;;;;;;5031778;28;20033;-81
2022/06/07 06:43:50;;;;;;;26.55;17.67;;;15.00;99.90;;;;;;5015174;28;20033;-80
2022/06/07 06:46:22;;;;;;;25.52;17.90;;;15.10;99.90;;;;;;5031382;28;20116;-80
2022/06/07 06:48:48;;;;;;;26.08;18.10;;;15.10;99.90;;;;;;5017462;28;20388;-81
2022/06/07 06:51:16;;;;;;;22.83;16.45;;;15.20;99.90;;;;;;5036411;28;20104;-79
2022/06/07 06:53:47;;;;;;;21.88;16.55;;;15.30;99.90;;;;;;5018268;28;20025;-81
2022/06/07 06:56:15;;;;;;;27.02;18.58;;;15.30;99.90;;;;;;5018100;28;20034;-80
2022/06/07 06:58:41;;;;;;;25.65;19.30;;;15.30;99.90;;;;;;5034880;28;20450;-78
2022/06/07 07:01:13;;;;;;;28.67;20.98;;;15.30;99.90;;;;;;5014920;28;20054;-80
2022/06/07 07:03:40;;;;;;;21.80;17.60;;;15.40;99.90;;;;;;5014889;28;20053;-79
2022/06/07 07:06:08;;;;;;;25.42;19.50;;;15.40;99.90;;;;;;5015029;28;20037;-82
2022/06/07 07:08:35;;;;;;;22.58;18.58;;;15.40;99.90;;;;;;5014879;28;20022;-80
2022/06/07 07:11:12;;;;;;;25.50;16.90;;;15.50;99.90;;;;;;5031187;28;20057;-81
2022/06/07 07:13:38;;;;;;;24.92;18.45;;;15.50;99.90;;;;;;5014718;28;20030;-84
2022/06/07 07:16:08;;;;;;;27.83;17.63;;;15.60;99.90;;;;;;5014848;28;20084;-82
2022/06/07 07:18:33;;;;;;;26.27;18.58;;;15.60;99.90;;;;;;5014667;28;20118;-80
2022/06/07 07:21:03;;;;;;;29.02;19.58;;;15.60;99.90;;;;;;5014633;28;20612;-81
2022/06/07 07:23:32;;;;;;;31.40;20.77;;;15.70;99.90;;;;;;5014741;28;20053;-82
2022/06/07 07:26:24;;;;;;;31.95;22.00;;;15.70;99.90;;;;;;5014393;28;20018;-81
2022/06/07 07:28:53;;;;;;;26.42;21.35;;;15.70;99.90;;;;;;5010330;28;20040;-80
2022/06/07 07:31:22;;;;;;;27.38;20.40;;;15.80;99.90;;;;;;5014638;28;20092;-82
2022/06/07 07:33:48;;;;;;;25.75;18.50;;;15.80;99.90;;;;;;5014382;28;20018;-80
2022/06/07 07:36:14;;;;;;;24.85;17.75;;;15.90;99.90;;;;;;5016159;28;20462;-81
2022/06/07 07:38:41;;;;;;;27.00;19.13;;;15.90;99.90;;;;;;5014661;28;20030;-78
2022/06/07 07:41:37;;;;;;;26.25;18.92;;;16.00;99.90;;;;;;5015566;28;20539;-81
2022/06/07 07:44:05;;;;;;;23.00;18.20;;;16.00;99.90;;;;;;5005791;28;20034;-80
2022/06/07 07:46:34;;;;;;;21.83;17.23;;;16.00;99.90;;;;;;5015321;28;20034;-80
2022/06/07 07:49:01;;;;;;;22.42;17.13;;;16.00;99.90;;;;;;5016023;28;20026;-83
2022/06/07 07:51:36;;;;;;;31.00;20.92;;;16.10;99.90;;;;;;5013891;28;20466;-83
2022/06/07 07:54:03;;;;;;;22.60;18.70;;;16.10;99.90;;;;;;5014322;28;20056;-81
2022/06/07 07:56:30;;;;;;;23.70;17.95;;;16.20;99.90;;;;;;5013947;28;20101;-82
2022/06/07 07:58:58;;;;;;;22.98;17.45;;;16.20;99.90;;;;;;5012856;28;20034;-81
2022/06/07 08:01:27;;;;;;;21.83;18.17;;;16.30;99.90;;;;;;5033182;28;20041;-80
2022/06/07 08:03:54;;;;;;;22.05;16.52;;;16.40;99.90;;;;;;5017092;28;20159;-81
2022/06/07 08:06:22;;;;;;;26.05;17.15;;;16.50;99.90;;;;;;5017051;28;20029;-82
2022/06/07 08:08:50;;;;;;;21.63;15.05;;;16.60;99.90;;;;;;5016926;28;20024;-82
2022/06/07 08:11:18;;;;;;;19.35;14.75;;;16.80;99.90;;;;;;5017061;28;20018;-82
2022/06/07 08:13:44;;;;;;;17.48;13.73;;;16.80;99.60;;;;;;5017024;28;20366;-83
2022/06/07 08:16:10;;;;;;;20.88;13.45;;;16.90;99.30;;;;;;5017024;28;20075;-81
2022/06/07 08:18:37;;;;;;;18.77;14.55;;;16.90;99.10;;;;;;5033524;28;20029;-81
2022/06/07 08:21:07;;;;;;;16.52;12.60;;;17.00;98.50;;;;;;5016705;28;20026;-81
2022/06/07 08:23:34;;;;;;;16.65;12.52;;;17.20;98.50;;;;;;5016856;28;20032;-80
2022/06/07 08:26:01;;;;;;;17.02;11.35;;;17.10;98.00;;;;;;5014415;28;20067;-81
2022/06/07 08:28:27;;;;;;;19.60;12.52;;;17.20;97.60;;;;;;5027977;28;20112;-81
2022/06/07 08:30:53;;;;;;;17.55;13.20;;;17.10;97.40;;;;;;4997187;28;20438;-82
2022/06/07 08:39:02;;;;;;;17.77;11.60;;;17.20;97.10;;;;;;5014873;28;20068;-84
2022/06/07 08:41:35;;;;;;;17.25;12.77;;;17.30;97.00;;;;;;5000647;28;20038;-83
2022/06/07 08:44:15;;;;;;;14.15;11.38;;;17.40;97.00;;;;;;5006523;28;20022;-84
2022/06/07 08:46:41;;;;;;;13.30;10.05;;;17.40;97.00;;;;;;5014470;28;20041;-88
2022/06/07 08:49:10;;;;;;;19.52;10.27;;;17.40;96.20;;;;;;4996980;28;20470;-85
2022/06/07 08:51:45;;;;;;;16.08;10.50;;;17.40;95.70;;;;;;4981352;28;20096;-87
2022/06/07 08:54:18;;;;;;;15.07;10.15;;;17.40;95.30;;;;;;4997115;28;20030;-87
2022/06/07 08:56:44;;;;;;;17.08;12.05;;;17.40;95.70;;;;;;4997081;28;20022;-86
2022/06/07 08:59:17;;;;;;;17.10;13.43;;;17.30;96.00;;;;;;4996713;28;20052;-82
2022/06/07 09:01:50;;;;;;;20.60;14.67;;;17.30;96.20;;;;;;4997458;28;20041;-86
2022/06/07 09:04:33;;;;;;;17.88;14.27;;;17.40;96.60;;;;;;4997119;28;20026;-83
2022/06/07 09:07:05;;;;;;;20.25;15.73;;;17.50;96.90;;;;;;5015194;28;20378;-87
2022/06/07 09:12:28;;;;;;;21.55;17.10;;;17.70;96.50;;;;;;5014820;28;20143;-86
2022/06/07 09:14:59;;;;;;;21.38;16.23;;;17.70;96.40;;;;;;4996715;28;20022;-86
2022/06/07 09:17:41;;;;;;;21.02;16.52;;;17.60;95.90;;;;;;4996908;28;20034;-86
2022/06/07 09:20:20;;;;;;;21.55;17.70;;;17.50;96.00;;;;;;4995630;28;20026;-86
2022/06/07 09:23:38;;;;;;;20.90;17.52;;;17.50;96.30;;;;;;4991932;28;20548;-85
2022/06/07 09:26:24;;;;;;;23.83;18.45;;;17.50;96.50;;;;;;4995448;28;20037;-83
2022/06/07 09:29:27;;;;;;;25.52;19.92;;;17.50;96.60;;;;;;5014494;28;20501;-89
2022/06/07 09:31:53;;;;;;;22.75;17.00;;;17.50;96.70;;;;;;4998037;28;20057;-85
2022/06/07 09:34:25;;;;;;;29.92;20.05;;;17.40;96.90;;;;;;4996808;28;20034;-89
2022/06/07 09:37:03;;;;;;;27.38;20.08;;;17.50;96.90;;;;;;5014895;28;20022;-88
2022/06/07 09:39:34;;;;;;;24.35;19.75;;;17.50;97.00;;;;;;4997056;28;20033;-84
2022/06/07 09:42:26;;;;;;;22.85;19.55;;;17.50;96.90;;;;;;5013601;28;20028;-86
2022/06/07 09:45:02;;;;;;;27.02;20.35;;;17.50;96.80;;;;;;4996634;28;20030;-89
2022/06/07 09:47:31;;;;;;;26.50;21.67;;;17.40;96.70;;;;;;5006237;28;20080;-88
2022/06/07 09:50:20;;;;;;;24.45;20.10;;;17.40;96.90;;;;;;4997271;28;20521;-89
2022/06/07 09:52:49;;;;;;;21.35;17.20;;;17.40;97.10;;;;;;5013513;28;20049;-85
2022/06/07 09:55:24;;;;;;;22.77;17.83;;;17.30;97.20;;;;;;4996658;28;20041;-83
2022/06/07 09:58:11;;;;;;;23.30;19.17;;;17.30;97.20;;;;;;4996526;28;20052;-88
2022/06/07 10:00:41;;;;;;;23.80;18.45;;;17.40;97.00;;;;;;5009249;28;20057;-84
2022/06/07 10:03:29;;;;;;;20.23;17.15;;;17.40;97.20;;;;;;5017362;28;20388;-87
2022/06/07 10:06:07;;;;;;;26.35;19.52;;;17.40;97.20;;;;;;5015457;28;20041;-82
2022/06/07 10:08:53;;;;;;;25.00;19.23;;;17.50;96.90;;;;;;5016264;28;20029;-88
2022/06/07 10:11:33;;;;;;;23.35;18.02;;;17.40;96.90;;;;;;4999900;28;20025;-88
2022/06/07 10:14:04;;;;;;;23.02;17.80;;;17.50;97.10;;;;;;5016425;28;20025;-86
2022/06/07 10:16:40;;;;;;;20.92;17.10;;;17.60;97.30;;;;;;5016094;28;20036;-85
2022/06/07 10:19:34;;;;;;;19.60;15.77;;;17.70;97.30;;;;;;5016257;28;20022;-84
2022/06/07 10:22:31;;;;;;;21.90;15.65;;;17.90;97.00;;;;;;5016366;28;20034;-82
2022/06/07 10:25:23;;;;;;;20.75;16.42;;;18.00;96.80;;;;;;5021286;28;20036;-85
2022/06/07 10:28:23;;;;;;;21.25;16.60;;;18.10;96.80;;;;;;5020214;28;20100;-84
2022/06/07 10:31:29;;;;;;;22.17;18.77;;;18.20;96.60;;;;;;5001545;28;20065;-89
2022/06/07 10:34:07;;;;;;;19.77;17.58;;;18.20;95.70;;;;;;5019505;28;20053;-86
2022/06/07 10:37:09;;;;;;;20.13;17.13;;;18.10;95.30;;;;;;5019233;28;20469;-85
2022/06/07 10:39:50;;;;;;;23.85;18.05;;;18.00;95.30;;;;;;5011684;28;20037;-87
2022/06/07 10:42:30;;;;;;;22.73;17.42;;;17.90;95.40;;;;;;5036770;28;20022;-86
2022/06/07 10:45:18;;;;;;;19.17;15.63;;;17.80;95.40;;;;;;5019029;28;20102;-89
2022/06/07 10:47:56;;;;;;;20.95;15.50;;;17.80;95.30;;;;;;5019037;28;20032;-88
2022/06/07 10:50:44;;;;;;;21.05;17.05;;;17.70;95.60;;;;;;5019242;28;20025;-88
2022/06/07 10:53:15;;;;;;;18.60;15.30;;;17.80;95.70;;;;;;5019100;28;20025;-85
2022/06/07 10:56:06;;;;;;;18.70;15.63;;;17.80;95.90;;;;;;5018933;28;20485;-83
2022/06/07 10:58:38;;;;;;;18.73;14.82;;;17.90;95.90;;;;;;5017912;28;20046;-92
2022/06/07 11:01:10;;;;;;;19.52;14.52;;;18.10;95.70;;;;;;5018847;28;20136;-86
2022/06/07 11:03:59;;;;;;;17.85;14.50;;;18.20;95.70;;;;;;5036310;28;20030;-85
2022/06/07 11:09:47;;;;;;;22.55;17.88;;;18.20;95.50;;;;;;5036979;28;20084;-83
2022/06/07 11:12:24;;;;;;;19.52;16.38;;;18.20;95.20;;;;;;5018779;28;20028;-85
2022/06/07 11:15:17;;;;;;;21.65;17.40;;;18.20;95.30;;;;;;5018985;28;20028;-87
2022/06/07 11:18:02;;;;;;;20.63;17.50;;;18.20;95.10;;;;;;5036352;28;20072;-85
2022/06/07 11:20:31;;;;;;;20.48;15.30;;;18.30;94.90;;;;;;5018561;28;20030;-87
2022/06/07 11:23:11;;;;;;;22.77;17.13;;;18.50;95.00;;;;;;5036250;28;20100;-88
2022/06/07 11:25:38;;;;;;;19.17;16.08;;;18.60;95.10;;;;;;5018636;28;20030;-88
2022/06/07 11:28:15;;;;;;;20.73;16.25;;;18.70;95.00;;;;;;5018699;28;20032;-82
2022/06/07 11:30:44;;;;;;;17.48;15.50;;;18.90;95.00;;;;;;5018767;28;20024;-90
2022/06/07 11:33:31;;;;;;;20.88;15.20;;;19.40;95.60;;;;;;5018166;28;20033;-82
2022/06/07 11:36:06;;;;;;;18.67;14.23;;;20.10;94.90;;;;;;5035887;28;20022;-89
2022/06/07 11:38:35;;;;;;;16.85;13.05;;;20.50;93.70;;;;;;5019207;28;20037;-87
2022/06/07 11:41:37;;;;;;;14.15;11.57;;;20.80;93.30;;;;;;5035681;28;20064;-86
2022/06/07 11:44:11;;;;;;;14.57;10.38;;;21.20;92.60;;;;;;5036011;28;20053;-86
2022/06/07 11:46:46;;;;;;;16.33;11.65;;;21.60;91.60;;;;;;5018268;28;20026;-83
2022/06/07 11:49:18;;;;;;;13.68;11.63;;;21.90;90.30;;;;;;5017835;28;20072;-88
2022/06/07 11:51:54;;;;;;;13.07;9.75;;;22.10;88.70;;;;;;5017793;28;20370;-84
2022/06/07 11:54:31;;;;;;;15.80;10.10;;;22.40;86.20;;;;;;5017662;28;20055;-81
2022/06/07 11:57:04;;;;;;;14.15;10.90;;;22.50;85.60;;;;;;5035668;28;20033;-87
2022/06/07 11:59:43;;;;;;;14.88;12.20;;;22.40;83.50;;;;;;5032421;28;20068;-83
2022/06/07 12:02:17;;;;;;;13.32;9.10;;;22.20;82.70;;;;;;4998301;28;20026;-86
2022/06/07 12:04:43;;;;;;;14.25;11.10;;;22.10;82.00;;;;;;5015687;28;20034;-82
2022/06/07 12:07:24;;;;;;;16.73;12.10;;;22.10;81.70;;;;;;4993702;28;20103;-84
2022/06/07 12:09:58;;;;;;;13.57;10.75;;;22.00;81.30;;;;;;4980591;28;20030;-83
2022/06/07 12:12:37;;;;;;;14.10;10.02;;;22.10;81.70;;;;;;4996379;28;20390;-87
2022/06/07 12:15:28;;;;;;;15.55;11.05;;;22.30;80.60;;;;;;5014288;28;20052;-84
2022/06/07 12:18:00;;;;;;;11.88;8.50;;;22.50;80.20;;;;;;4997726;28;20430;-81
2022/06/07 12:20:35;;;;;;;12.32;8.15;;;23.10;79.60;;;;;;4997939;28;20014;-85
2022/06/07 12:23:33;;;;;;;12.90;7.40;;;23.60;77.50;;;;;;4998257;28;20417;-87
2022/06/07 12:26:06;;;;;;;11.40;7.43;;;24.30;75.30;;;;;;4995283;28;20390;-85
2022/06/07 12:28:37;;;;;;;10.85;6.40;;;24.90;74.90;;;;;;4997315;28;20022;-87
2022/06/07 12:31:15;;;;;;;9.43;5.70;;;25.30;72.80;;;;;;4997913;28;20050;-83
2022/06/07 12:33:57;;;;;;;11.23;8.05;;;25.60;69.90;;;;;;4998374;28;20018;-90
2022/06/07 12:36:34;;;;;;;8.93;7.53;;;25.40;67.40;;;;;;4997321;28;20429;-88
2022/06/07 12:39:14;;;;;;;11.48;9.32;;;24.90;66.80;;;;;;4997239;28;20014;-89
2022/06/07 12:41:58;;;;;;;13.77;8.60;;;24.40;66.80;;;;;;4997253;28;20022;-85
2022/06/07 12:44:30;;;;;;;12.05;9.00;;;23.90;67.00;;;;;;4997486;28;20045;-85
2022/06/07 12:46:58;;;;;;;11.68;9.10;;;23.50;66.90;;;;;;4996840;28;20030;-85
2022/06/07 12:49:44;;;;;;;8.93;6.57;;;23.20;67.90;;;;;;4996775;28;20022;-84
2022/06/07 12:52:26;;;;;;;11.90;8.35;;;23.10;69.20;;;;;;4997184;28;20378;-84
2022/06/07 12:55:00;;;;;;;11.90;8.63;;;23.10;69.50;;;;;;4996808;28;20084;-83
2022/06/07 12:57:28;;;;;;;10.50;8.07;;;23.00;69.70;;;;;;4996876;28;20462;-89
2022/06/07 13:00:00;;;;;;;10.75;7.47;;;23.30;70.60;;;;;;4999991;28;20037;-89
2022/06/07 13:02:40;;;;;;;7.65;4.65;;;24.10;70.50;;;;;;5014612;28;20040;-84
2022/06/07 13:05:10;;;;;;;9.60;6.63;;;24.80;69.30;;;;;;4997270;28;20150;-86
2022/06/07 13:07:51;;;;;;;9.25;6.25;;;25.00;67.50;;;;;;4996855;28;20026;-83
2022/06/07 13:10:29;;;;;;;9.57;6.57;;;25.00;66.60;;;;;;5013242;28;20069;-86